createdAt,value
2018-08-09T00:01:50.080Z,61.30
2018-08-09T00:04:19.292Z,60.80
2018-08-09T00:06:47.713Z,61.50
2018-08-09T00:09:16.436Z,61.10
2018-08-09T00:11:45.508Z,61.50
2018-08-09T00:14:14.245Z,62.40
2018-08-09T00:16:43.251Z,61.80
2018-08-09T00:19:12.337Z,61.60
2018-08-09T00:21:41.314Z,61.70
2018-08-09T00:24:10.403Z,61.80
2018-08-09T00:26:39.096Z,61.50
2018-08-09T00:29:07.815Z,62.10
2018-08-09T00:31:36.551Z,63.10
2018-08-09T00:34:05.443Z,62.80
2018-08-09T00:36:34.183Z,63.60
2018-08-09T00:39:02.658Z,62.80
2018-08-09T00:41:31.475Z,62.80
2018-08-09T00:44:00.178Z,63.10
2018-08-09T00:46:28.864Z,62.80
2018-08-09T00:48:57.502Z,62.90
2018-08-09T00:51:26.179Z,62.90
2018-08-09T00:53:54.874Z,63.00
2018-08-09T00:56:23.563Z,62.60
2018-08-09T00:58:52.419Z,63.20
2018-08-09T01:01:21.143Z,63.80
2018-08-09T01:03:49.875Z,63.90
2018-08-09T01:06:18.621Z,64.40
2018-08-09T01:09:18.233Z,64.50
2018-08-09T01:11:46.918Z,64.20
2018-08-09T01:14:15.390Z,64.10
2018-08-09T01:16:44.743Z,64.40
2018-08-09T01:19:13.443Z,63.80
2018-08-09T01:21:42.183Z,64.20
2018-08-09T01:24:10.652Z,64.10
2018-08-09T01:26:39.487Z,64.10
2018-08-09T01:29:08.148Z,64.40
2018-08-09T01:31:38.016Z,64.70
2018-08-09T01:34:08.147Z,65.10
2018-08-09T01:36:37.457Z,66.00
2018-08-09T01:39:10.080Z,66.40
2018-08-09T01:41:38.763Z,66.40
2018-08-09T01:44:07.886Z,66.40
2018-08-09T01:46:36.406Z,66.50
2018-08-09T01:49:04.811Z,67.00
2018-08-09T01:51:33.572Z,67.20
2018-08-09T01:54:02.278Z,66.90
2018-08-09T01:56:30.992Z,67.00
2018-08-09T01:58:59.849Z,67.00
2018-08-09T02:01:28.302Z,67.00
2018-08-09T02:03:57.045Z,67.70
2018-08-09T02:06:25.745Z,68.00
2018-08-09T02:08:54.486Z,68.40
2018-08-09T02:11:23.221Z,68.40
2018-08-09T02:13:51.631Z,68.10
2018-08-09T02:16:20.331Z,68.50
2018-08-09T02:18:48.759Z,69.00
2018-08-09T02:21:17.366Z,69.70
2018-08-09T02:23:45.782Z,69.40
2018-08-09T02:26:14.534Z,69.20
2018-08-09T02:28:43.524Z,69.40
2018-08-09T02:31:12.398Z,69.50
2018-08-09T02:33:40.802Z,70.50
2018-08-09T02:36:09.338Z,70.70
2018-08-09T02:38:37.786Z,70.70
2018-08-09T02:41:06.398Z,71.50
2018-08-09T02:43:34.897Z,71.40
2018-08-09T02:46:03.616Z,71.10
2018-08-09T02:48:32.380Z,70.70
2018-08-09T02:51:00.851Z,70.50
2018-08-09T02:53:29.536Z,70.50
2018-08-09T02:55:58.056Z,71.10
2018-08-09T02:58:26.424Z,71.40
2018-08-09T03:00:54.880Z,72.00
2018-08-09T03:03:23.345Z,72.00
2018-08-09T03:05:52.063Z,71.60
2018-08-09T03:08:20.611Z,71.70
2018-08-09T03:10:49.708Z,71.70
2018-08-09T03:13:18.394Z,71.40
2018-08-09T03:15:47.104Z,71.20
2018-08-09T03:18:15.521Z,71.30
2018-08-09T03:20:44.890Z,72.20
2018-08-09T03:23:13.337Z,72.10
2018-08-09T03:25:41.848Z,72.50
2018-08-09T03:28:10.493Z,73.20
2018-08-09T03:30:38.934Z,73.20
2018-08-09T03:33:07.467Z,73.40
2018-08-09T03:35:35.954Z,73.50
2018-08-09T03:38:04.618Z,73.20
2018-08-09T03:40:33.121Z,72.90
2018-08-09T03:43:01.761Z,73.20
2018-08-09T03:45:30.414Z,73.20
2018-08-09T03:47:59.127Z,73.00
2018-08-09T03:50:27.539Z,72.40
2018-08-09T03:52:56.019Z,73.10
2018-08-09T03:55:24.461Z,72.90
2018-08-09T03:57:53.455Z,73.60
2018-08-09T04:00:21.875Z,73.30
2018-08-09T04:02:50.553Z,73.10
2018-08-09T04:05:18.984Z,73.70
2018-08-09T04:07:47.602Z,72.70
2018-08-09T04:10:16.039Z,73.00
2018-08-09T04:12:45.838Z,73.10
2018-08-09T04:15:14.482Z,73.50
2018-08-09T04:17:43.213Z,72.70
2018-08-09T04:20:11.629Z,72.30
2018-08-09T04:22:46.831Z,72.50
2018-08-09T04:25:15.555Z,71.90
2018-08-09T04:27:45.811Z,71.90
2018-08-09T04:30:14.665Z,72.50
2018-08-09T04:32:43.114Z,72.00
2018-08-09T04:35:11.788Z,72.20
2018-08-09T04:37:40.547Z,72.40
2018-08-09T04:40:08.962Z,72.60
2018-08-09T04:42:37.468Z,72.70
2018-08-09T04:45:06.168Z,72.70
2018-08-09T04:47:34.970Z,72.70
2018-08-09T04:50:03.777Z,72.90
2018-08-09T04:52:32.477Z,73.00
2018-08-09T04:55:01.168Z,72.70
2018-08-09T04:57:29.971Z,72.90
2018-08-09T04:59:58.583Z,73.90
2018-08-09T05:02:27.351Z,73.50
2018-08-09T05:04:56.041Z,73.90
2018-08-09T05:07:24.621Z,73.90
2018-08-09T05:09:53.041Z,73.70
2018-08-09T05:12:21.647Z,73.40
2018-08-09T05:14:50.167Z,73.50
2018-08-09T05:17:18.636Z,73.40
2018-08-09T05:19:47.050Z,73.60
2018-08-09T05:22:15.906Z,73.40
2018-08-09T05:24:45.480Z,73.00
2018-08-09T05:27:13.946Z,73.20
2018-08-09T05:29:42.900Z,73.00
2018-08-09T05:32:11.668Z,73.10
2018-08-09T05:34:40.650Z,73.40
2018-08-09T05:37:09.102Z,73.40
2018-08-09T05:39:37.700Z,73.20
2018-08-09T05:42:06.922Z,72.40
2018-08-09T05:44:35.639Z,72.20
2018-08-09T05:47:04.215Z,72.00
2018-08-09T05:49:32.963Z,72.30
2018-08-09T05:52:01.766Z,71.60
2018-08-09T05:54:30.729Z,71.70
2018-08-09T05:56:59.766Z,72.20
2018-08-09T05:59:28.787Z,70.90
2018-08-09T06:01:57.840Z,71.40
2018-08-09T06:04:26.862Z,70.90
2018-08-09T06:06:55.913Z,70.50
2018-08-09T06:09:24.908Z,70.20
2018-08-09T06:11:53.853Z,70.40
2018-08-09T06:14:22.577Z,70.00
2018-08-09T06:16:51.270Z,70.20
2018-08-09T06:19:20.010Z,70.10
2018-08-09T06:21:48.674Z,69.20
2018-08-09T06:24:17.212Z,68.70
2018-08-09T06:26:47.093Z,68.50
2018-08-09T06:29:15.963Z,68.50
2018-08-09T06:31:45.875Z,68.10
2018-08-09T06:34:14.817Z,68.00
2018-08-09T06:36:43.783Z,67.00
2018-08-09T06:39:12.835Z,66.60
2018-08-09T06:41:41.822Z,66.50
2018-08-09T06:44:11.007Z,66.30
2018-08-09T06:46:39.876Z,65.60
2018-08-09T06:49:09.067Z,65.00
2018-08-09T06:51:37.862Z,65.60
2018-08-09T06:54:06.910Z,65.10
2018-08-09T06:56:35.686Z,66.00
2018-08-09T06:59:04.138Z,65.00
2018-08-09T07:01:32.855Z,65.00
2018-08-09T07:04:01.870Z,64.90
2018-08-09T07:06:31.085Z,64.40
2018-08-09T07:08:59.935Z,64.30
2018-08-09T07:11:28.919Z,64.80
2018-08-09T07:13:57.990Z,65.00
2018-08-09T07:16:27.019Z,64.90
2018-08-09T07:18:56.055Z,64.30
2018-08-09T07:21:24.771Z,63.60
2018-08-09T07:23:53.555Z,62.90
2018-08-09T07:26:22.298Z,62.20
2018-08-09T07:28:51.596Z,61.60
2018-08-09T07:31:20.357Z,60.70
2018-08-09T07:33:49.111Z,59.90
2018-08-09T07:36:18.033Z,59.60
2018-08-09T07:38:46.492Z,59.00
2018-08-09T07:41:15.195Z,58.50
2018-08-09T07:43:44.070Z,58.70
2018-08-09T07:46:13.032Z,58.60
2018-08-09T07:48:41.883Z,58.20
2018-08-09T07:51:10.847Z,57.60
2018-08-09T07:53:39.874Z,57.60
2018-08-09T07:56:09.021Z,57.60
2018-08-09T07:58:37.998Z,57.20
2018-08-09T08:01:07.052Z,56.80
2018-08-09T08:03:36.170Z,56.50
2018-08-09T08:06:04.941Z,56.50
2018-08-09T08:08:33.910Z,55.20
2018-08-09T08:11:04.134Z,54.80
2018-08-09T08:13:33.622Z,54.00
2018-08-09T08:16:02.412Z,52.90
2018-08-09T08:18:31.134Z,52.40
2018-08-09T08:21:00.197Z,51.70
2018-08-09T08:23:28.933Z,50.70
2018-08-09T08:25:57.763Z,50.60
2018-08-09T08:28:26.459Z,50.30
2018-08-09T08:30:55.182Z,51.40
2018-08-09T08:33:23.883Z,49.70
2018-08-09T08:35:52.511Z,49.70
2018-08-09T08:38:21.328Z,50.00
2018-08-09T08:40:50.288Z,49.30
2018-08-09T08:43:19.023Z,48.80
2018-08-09T08:45:48.077Z,48.60
2018-08-09T08:48:17.432Z,49.00
2018-08-09T08:50:46.542Z,48.60
2018-08-09T08:53:15.281Z,48.40
2018-08-09T08:55:44.182Z,48.80
2018-08-09T08:58:13.044Z,48.10
2018-08-09T09:00:42.090Z,48.00
2018-08-09T09:03:11.196Z,47.90
2018-08-09T09:05:40.147Z,47.70
2018-08-09T09:08:09.044Z,46.30
2018-08-09T09:10:38.040Z,45.30
2018-08-09T09:13:06.932Z,45.60
2018-08-09T09:15:35.689Z,45.50
2018-08-09T09:18:04.212Z,45.20
2018-08-09T09:20:33.019Z,46.40
2018-08-09T09:23:02.101Z,47.40
2018-08-09T09:25:31.108Z,49.60
2018-08-09T09:28:00.096Z,50.60
2018-08-09T09:30:29.116Z,48.00
2018-08-09T09:32:58.294Z,46.90
2018-08-09T09:35:27.050Z,45.80
2018-08-09T09:37:55.734Z,45.20
2018-08-09T09:40:24.656Z,46.80
2018-08-09T09:42:53.454Z,45.60
2018-08-09T09:45:22.193Z,45.60
2018-08-09T09:47:51.194Z,44.80
2018-08-09T09:50:20.186Z,44.70
2018-08-09T09:52:49.117Z,44.10
2018-08-09T09:55:18.124Z,43.20
2018-08-09T09:57:46.580Z,44.10
2018-08-09T10:00:20.796Z,44.00
2018-08-09T10:02:49.522Z,44.40
2018-08-09T10:05:18.274Z,44.10
2018-08-09T10:07:46.706Z,42.20
2018-08-09T10:10:15.509Z,43.40
2018-08-09T10:12:44.250Z,43.10
2018-08-09T10:15:13.429Z,42.50
2018-08-09T10:17:42.275Z,42.80
2018-08-09T10:20:11.411Z,41.80
2018-08-09T10:22:40.157Z,42.20
2018-08-09T10:25:08.955Z,42.70
2018-08-09T10:27:37.761Z,41.90
2018-08-09T10:30:06.664Z,41.80
2018-08-09T10:32:35.427Z,42.00
2018-08-09T10:35:04.834Z,41.90
2018-08-09T10:37:33.904Z,40.80
2018-08-09T10:40:02.463Z,40.40
2018-08-09T10:42:31.245Z,39.50
2018-08-09T10:45:00.234Z,39.90
2018-08-09T10:47:29.235Z,38.80
2018-08-09T10:49:58.220Z,40.00
2018-08-09T10:52:27.418Z,38.40
2018-08-09T10:54:56.298Z,38.50
2018-08-09T10:57:25.354Z,39.00
2018-08-09T10:59:54.117Z,39.10
2018-08-09T11:02:23.042Z,41.00
2018-08-09T11:04:51.756Z,40.00
2018-08-09T11:07:20.474Z,40.00
2018-08-09T11:09:49.222Z,39.70
2018-08-09T11:12:18.238Z,39.50
2018-08-09T11:14:46.817Z,38.80
2018-08-09T11:17:15.521Z,37.60
2018-08-09T11:19:44.240Z,37.90
2018-08-09T11:22:13.251Z,38.40
2018-08-09T11:24:42.275Z,37.90
2018-08-09T11:27:11.244Z,38.00
2018-08-09T11:29:40.211Z,39.10
2018-08-09T11:32:09.143Z,38.90
2018-08-09T11:34:37.886Z,37.60
2018-08-09T11:37:06.930Z,36.70
2018-08-09T11:39:35.660Z,37.90
2018-08-09T11:42:04.378Z,37.10
2018-08-09T11:44:33.314Z,36.40
2018-08-09T11:47:02.460Z,36.50
2018-08-09T11:49:31.144Z,35.90
2018-08-09T11:51:59.840Z,35.50
2018-08-09T11:54:28.618Z,34.60
2018-08-09T11:56:57.383Z,34.20
2018-08-09T11:59:26.221Z,34.50
2018-08-09T12:01:54.820Z,34.50
2018-08-09T12:04:23.588Z,33.40
2018-08-09T12:06:52.447Z,32.90
2018-08-09T12:09:21.233Z,32.50
2018-08-09T12:11:49.955Z,33.10
2018-08-09T12:14:18.653Z,33.40
2018-08-09T12:16:47.372Z,32.90
2018-08-09T12:19:16.347Z,32.10
2018-08-09T12:21:45.938Z,31.80
2018-08-09T12:24:14.744Z,32.40
2018-08-09T12:26:43.963Z,32.10
2018-08-09T12:29:12.636Z,32.80
2018-08-09T12:31:41.538Z,32.80
2018-08-09T12:34:10.262Z,32.70
2018-08-09T12:36:39.057Z,32.40
2018-08-09T12:39:10.401Z,32.30
2018-08-09T12:41:39.414Z,32.50
2018-08-09T12:44:08.736Z,32.40
2018-08-09T12:46:37.422Z,32.20
2018-08-09T12:49:06.711Z,32.80
2018-08-09T12:51:35.786Z,33.10
2018-08-09T12:54:04.517Z,32.60
2018-08-09T12:56:33.253Z,32.30
2018-08-09T12:59:02.066Z,31.60
2018-08-09T13:01:30.772Z,31.30
2018-08-09T13:03:59.541Z,31.30
2018-08-09T13:06:28.605Z,30.80
2018-08-09T13:08:57.517Z,30.50
2018-08-09T13:11:26.714Z,29.90
2018-08-09T13:13:55.412Z,29.00
2018-08-09T13:16:24.114Z,28.80
2018-08-09T13:18:52.786Z,28.80
2018-08-09T13:21:21.492Z,29.20
2018-08-09T13:23:50.640Z,30.00
2018-08-09T13:26:19.466Z,30.40
2018-08-09T13:28:48.481Z,31.00
2018-08-09T13:31:17.456Z,30.90
2018-08-09T13:33:46.710Z,31.10
2018-08-09T13:36:15.553Z,31.10
2018-08-09T13:38:44.626Z,30.30
2018-08-09T13:41:13.635Z,30.10
2018-08-09T13:43:42.687Z,30.20
2018-08-09T13:46:11.437Z,30.90
2018-08-09T13:48:40.154Z,31.20
2018-08-09T13:51:08.881Z,32.20
2018-08-09T13:53:37.628Z,31.90
2018-08-09T13:56:06.652Z,30.90
2018-08-09T13:58:35.652Z,29.80
2018-08-09T14:01:04.373Z,30.10
2018-08-09T14:03:33.283Z,30.00
2018-08-09T14:06:01.960Z,30.50
2018-08-09T14:08:31.035Z,30.20
2018-08-09T14:10:59.690Z,31.30
2018-08-09T14:13:28.386Z,31.60
2018-08-09T14:15:56.998Z,31.80
2018-08-09T14:18:25.718Z,31.90
2018-08-09T14:20:54.700Z,32.80
2018-08-09T14:23:23.694Z,33.30
2018-08-09T14:25:52.653Z,33.30
2018-08-09T14:28:21.507Z,33.20
2018-08-09T14:30:50.486Z,33.80
2018-08-09T14:33:19.219Z,34.50
2018-08-09T14:35:47.935Z,34.50
2018-08-09T14:38:16.707Z,33.90
2018-08-09T14:40:46.699Z,33.30
2018-08-09T14:43:15.413Z,32.20
2018-08-09T14:45:44.095Z,31.00
2018-08-09T14:48:12.883Z,30.60
2018-08-09T14:50:41.608Z,29.70
2018-08-09T14:53:10.835Z,29.70
2018-08-09T14:55:39.527Z,29.70
2018-08-09T14:58:08.282Z,29.50
2018-08-09T15:00:37.017Z,28.50
2018-08-09T15:03:05.782Z,29.30
2018-08-09T15:05:34.534Z,29.80
2018-08-09T15:08:03.658Z,30.30
2018-08-09T15:10:32.638Z,30.80
2018-08-09T15:13:01.038Z,31.30
2018-08-09T15:15:29.804Z,31.00
2018-08-09T15:17:58.727Z,31.10
2018-08-09T15:20:27.929Z,30.90
2018-08-09T15:22:56.706Z,30.60
2018-08-09T15:25:25.579Z,30.20
2018-08-09T15:27:54.269Z,28.30
2018-08-09T15:30:22.995Z,27.90
2018-08-09T15:32:51.677Z,27.20
2018-08-09T15:35:20.711Z,27.60
2018-08-09T15:37:49.113Z,28.20
2018-08-09T15:40:17.945Z,30.00
2018-08-09T15:42:47.178Z,30.00
2018-08-09T15:45:16.323Z,30.20
2018-08-09T15:52:38.580Z,32.30
2018-08-09T15:55:08.081Z,32.70
2018-08-09T15:57:37.328Z,34.10
2018-08-09T16:00:16.266Z,33.10
2018-08-09T16:02:45.488Z,33.70
2018-08-09T16:05:14.680Z,33.80
2018-08-09T16:07:43.947Z,34.30
2018-08-09T16:10:14.329Z,34.70
2018-08-09T16:12:43.544Z,35.00
2018-08-09T16:15:14.700Z,35.60
2018-08-09T16:17:47.199Z,35.60
2018-08-09T16:20:16.582Z,35.50
2018-08-09T16:22:46.275Z,35.50
2018-08-09T16:25:16.438Z,40.30
2018-08-09T16:27:45.676Z,43.10
2018-08-09T16:30:18.254Z,43.40
2018-08-09T16:32:47.398Z,45.40
2018-08-09T16:35:16.386Z,49.50
2018-08-09T16:37:46.004Z,52.00
2018-08-09T16:40:23.215Z,54.80
2018-08-09T16:42:52.239Z,58.00
2018-08-09T16:45:22.156Z,56.90
2018-08-09T16:47:52.037Z,55.40
2018-08-09T16:50:22.597Z,54.30
2018-08-09T16:52:51.975Z,53.40
2018-08-09T16:55:22.057Z,56.30
2018-08-09T16:57:51.111Z,52.80
2018-08-09T17:00:21.465Z,52.20
2018-08-09T17:02:51.331Z,54.60
2018-08-09T17:05:23.466Z,56.70
2018-08-09T17:07:52.624Z,57.20
2018-08-09T17:10:23.901Z,56.80
2018-08-09T17:12:53.024Z,57.70
2018-08-09T17:15:25.314Z,58.20
2018-08-09T17:17:55.165Z,57.50
2018-08-09T17:20:26.323Z,54.90
2018-08-09T17:22:55.735Z,56.80
2018-08-09T17:25:24.897Z,56.10
2018-08-09T17:27:54.076Z,57.60
2018-08-09T17:30:24.882Z,56.10
2018-08-09T17:32:54.306Z,53.10
2018-08-09T17:35:23.582Z,54.90
2018-08-09T17:37:53.413Z,54.60
2018-08-09T17:40:25.251Z,54.30
2018-08-09T17:42:55.303Z,54.10
2018-08-09T17:45:26.627Z,54.40
2018-08-09T17:47:55.989Z,55.10
2018-08-09T17:50:25.046Z,55.90
2018-08-09T17:52:55.223Z,55.70
2018-08-09T17:55:24.206Z,55.80
2018-08-09T17:57:53.307Z,55.70
2018-08-09T18:00:27.552Z,55.30
2018-08-09T18:02:56.761Z,55.60
2018-08-09T18:05:25.816Z,56.00
2018-08-09T18:07:55.403Z,57.80
2018-08-09T18:10:26.534Z,57.40
2018-08-09T18:12:55.706Z,58.20
2018-08-09T18:15:25.955Z,58.60
2018-08-09T18:17:55.280Z,58.70
2018-08-09T18:20:28.484Z,59.60
2018-08-09T18:22:57.495Z,60.20
2018-08-09T18:25:26.515Z,62.60
2018-08-09T18:27:55.543Z,65.10
2018-08-09T18:30:24.564Z,68.00
2018-08-09T18:32:54.475Z,71.30
2018-08-09T18:35:23.058Z,73.40
2018-08-09T18:37:52.100Z,77.20
2018-08-09T18:40:23.304Z,77.90
2018-08-09T18:42:52.339Z,82.70
2018-08-09T18:45:21.633Z,81.60
2018-08-09T18:47:50.620Z,83.10
2018-08-09T18:50:20.685Z,84.10
2018-08-09T18:52:49.709Z,85.90
2018-08-09T18:55:19.285Z,87.50
2018-08-09T18:57:48.607Z,85.50
2018-08-09T19:00:27.762Z,88.40
2018-08-09T19:02:56.338Z,88.10
2018-08-09T19:05:25.011Z,89.00
2018-08-09T19:07:53.524Z,88.30
2018-08-09T19:10:24.425Z,88.70
2018-08-09T19:12:53.427Z,85.90
2018-08-09T19:15:21.847Z,86.50
2018-08-09T19:17:50.634Z,83.20
2018-08-09T19:20:21.660Z,83.20
2018-08-09T19:22:50.264Z,84.50
2018-08-09T19:25:18.759Z,85.90
2018-08-09T19:27:47.288Z,85.70
2018-08-09T19:30:16.936Z,86.00
2018-08-09T19:32:46.151Z,85.50
2018-08-09T19:35:15.682Z,86.70
2018-08-09T19:37:44.146Z,87.50
2018-08-09T19:40:14.844Z,87.90
2018-08-09T19:42:43.828Z,88.80
2018-08-09T19:45:14.268Z,88.50
2018-08-09T19:47:42.742Z,88.60
2018-08-09T19:50:13.226Z,89.50
2018-08-09T19:52:42.282Z,84.20
2018-08-09T19:55:14.167Z,87.60
2018-08-09T19:57:43.830Z,86.50
2018-08-09T20:00:16.867Z,85.40
2018-08-09T20:02:46.529Z,86.50
2018-08-09T20:05:15.106Z,87.40
2018-08-09T20:07:43.624Z,86.60
2018-08-09T20:10:13.092Z,86.90
2018-08-09T20:12:41.804Z,86.00
2018-08-09T20:15:13.229Z,85.90
2018-08-09T20:17:42.215Z,85.90
2018-08-09T20:20:12.049Z,85.10
2018-08-09T20:22:41.182Z,84.70
2018-08-09T20:25:11.389Z,84.70
2018-08-09T20:27:40.696Z,85.20
2018-08-09T20:30:11.098Z,84.20
2018-08-09T20:32:40.430Z,84.90
2018-08-09T20:35:12.202Z,85.00
2018-08-09T20:37:41.159Z,84.60
2018-08-09T20:40:10.515Z,83.20
2018-08-09T20:42:39.293Z,82.70
2018-08-09T20:45:09.843Z,83.20
2018-08-09T20:47:38.356Z,83.00
2018-08-09T20:50:09.288Z,78.60
2018-08-09T20:52:37.891Z,78.90
2018-08-09T20:55:06.760Z,79.10
2018-08-09T20:57:35.178Z,81.60
2018-08-09T21:00:04.046Z,83.30
2018-08-09T21:02:32.539Z,86.60
2018-08-09T21:05:00.983Z,87.20
2018-08-09T21:07:29.386Z,87.50
2018-08-09T21:09:57.836Z,88.30
2018-08-09T21:12:26.253Z,89.00
2018-08-09T21:14:55.003Z,89.60
2018-08-09T21:17:23.484Z,89.50
2018-08-09T21:19:51.931Z,89.60
2018-08-09T21:22:20.372Z,90.00
2018-08-09T21:24:48.810Z,88.60
2018-08-09T21:27:17.275Z,89.10
2018-08-09T21:29:45.845Z,89.00
2018-08-09T21:32:14.363Z,88.80
2018-08-09T21:34:42.986Z,88.80
2018-08-09T21:37:11.482Z,89.20
2018-08-09T21:39:39.898Z,89.10
2018-08-09T21:42:08.374Z,88.70
2018-08-09T21:44:36.832Z,88.70
2018-08-09T21:47:05.221Z,88.20
2018-08-09T21:49:33.736Z,87.20
2018-08-09T21:52:02.357Z,87.30
2018-08-09T21:54:30.789Z,85.40
2018-08-09T21:56:59.399Z,84.50
2018-08-09T21:59:27.820Z,85.30
2018-08-09T22:01:56.293Z,84.80
2018-08-09T22:04:24.699Z,84.30
2018-08-09T22:09:02.005Z,84.30
2018-08-09T22:11:35.725Z,84.00
2018-08-09T22:14:09.507Z,83.00
2018-08-09T22:16:43.319Z,82.20
2018-08-09T22:19:17.369Z,82.50
2018-08-09T22:21:51.226Z,82.10
2018-08-09T22:24:19.656Z,81.70
2018-08-09T22:26:48.146Z,81.00
2018-08-09T22:29:16.610Z,81.20
2018-08-09T22:31:45.050Z,81.00
2018-08-09T22:34:13.503Z,81.20
2018-08-09T22:36:41.948Z,81.40
2018-08-09T22:39:10.376Z,81.70
2018-08-09T22:41:38.892Z,81.10
2018-08-09T22:44:07.355Z,81.00
2018-08-09T22:46:35.861Z,81.20
2018-08-09T22:49:04.307Z,81.00
2018-08-09T22:51:33.261Z,80.50
2018-08-09T22:54:01.689Z,81.00
2018-08-09T22:56:30.220Z,80.90
2018-08-09T22:58:58.638Z,81.10
2018-08-09T23:01:27.060Z,81.10
2018-08-09T23:03:55.484Z,81.50
2018-08-09T23:06:24.086Z,81.80
2018-08-09T23:08:52.670Z,81.90
2018-08-09T23:11:21.679Z,81.50
2018-08-09T23:13:50.171Z,81.90
2018-08-09T23:16:18.587Z,81.30
2018-08-09T23:18:46.985Z,83.10
2018-08-09T23:21:15.539Z,83.80
2018-08-09T23:23:44.055Z,85.10
2018-08-09T23:26:12.523Z,86.10
2018-08-09T23:28:41.382Z,87.50
2018-08-09T23:31:09.918Z,88.50
2018-08-09T23:33:38.319Z,89.30
2018-08-09T23:36:06.734Z,89.10
2018-08-09T23:38:35.256Z,88.30
2018-08-09T23:41:03.884Z,88.00
2018-08-09T23:43:32.318Z,88.30
2018-08-09T23:46:00.731Z,89.20
2018-08-09T23:48:29.297Z,88.50
2018-08-09T23:50:57.703Z,90.10
2018-08-09T23:53:26.151Z,90.10
2018-08-09T23:55:54.673Z,90.90
2018-08-09T23:58:23.575Z,91.30
